ROMMA est une association bénévole à but non lucratif. Votre soutien est indispensable : ADHERER à ROMMA ou FAIRE un DON

Taninges - (74, Haute-Savoie)

Vallée du Giffre (635 m)   Longitude: 06° 35' 38" E   Latitude: 46° 06' 21" N Station romma n°98
 

Détail journalier du     <<     >>

Température Humidité Pression Vent Dir Rafale Dir. rafale Ensol.
Heure (°C) (%) (hPa) (km/h) (km/h) (min)
01:00 12.295101803ESE0
02:00 11.69610181ESE6SSE0
03:00 11.39610181SSO6SSO0
04:00 10.09610181SSE3SSO0
05:00 9.69510181SSE3SSE0
06:00 9.296101803SSE0
07:00 9.197101903SSE0
08:00 9.79710191SSE3SSE20
09:00 13.39710191SSE3SSE60
10:00 17.58310192SO5SO60
11:00 21.46410182S6S60
12:00 23.65910173OSO10OSO60
13:00 24.45810179OSO19SO60
14:00 25.75010179OSO18SO60
15:00 26.74510169OSO21OSO45
16:00 27.341101610OSO19SO60
17:00 27.737101610OSO21OSO60
18:00 27.63910167O18OSO60
19:00 25.34910164ONO10O60
20:00 21.56010174NE15ENE10
21:00 18.18010181ENE6NE0
22:00 16.188101805E0
23:00 14.4911018000
minuit 13.0931018000

Graphique du 25-08-2019

 

Serveur OMMA